createdAt,value
2018-10-16T00:01:52.221Z,15.08
2018-10-16T00:04:28.889Z,15.24
2018-10-16T00:07:04.379Z,15.24
2018-10-16T00:09:41.091Z,15.19
2018-10-16T00:12:15.613Z,15.06
2018-10-16T00:14:51.149Z,14.96
2018-10-16T00:17:25.973Z,14.87
2018-10-16T00:20:03.857Z,14.81
2018-10-16T00:22:38.484Z,14.79
2018-10-16T00:25:15.032Z,14.73
2018-10-16T00:27:49.755Z,14.71
2018-10-16T00:30:24.270Z,14.69
2018-10-16T00:32:59.022Z,14.77
2018-10-16T00:35:36.052Z,15.00
2018-10-16T00:38:10.568Z,15.09
2018-10-16T00:40:51.133Z,15.15
2018-10-16T00:43:45.419Z,15.23
2018-10-16T00:46:21.584Z,15.21
2018-10-16T00:48:56.483Z,15.18
2018-10-16T00:51:32.309Z,15.05
2018-10-16T00:54:17.380Z,14.94
2018-10-16T00:56:52.242Z,14.89
2018-10-16T00:59:26.809Z,14.84
2018-10-16T01:02:01.318Z,14.77
2018-10-16T01:04:36.281Z,14.71
2018-10-16T01:07:10.810Z,14.63
2018-10-16T01:09:45.680Z,14.59
2018-10-16T01:12:20.364Z,14.67
2018-10-16T01:14:55.030Z,14.81
2018-10-16T01:17:29.567Z,14.87
2018-10-16T01:20:04.077Z,14.85
2018-10-16T01:22:38.980Z,14.78
2018-10-16T01:25:14.071Z,14.74
2018-10-16T01:27:48.947Z,14.61
2018-10-16T01:30:23.482Z,14.53
2018-10-16T01:32:58.059Z,14.51
2018-10-16T01:35:32.925Z,14.53
2018-10-16T01:38:07.622Z,14.61
2018-10-16T01:40:42.492Z,14.56
2018-10-16T01:43:19.230Z,14.70
2018-10-16T01:45:53.722Z,14.78
2018-10-16T01:48:51.008Z,14.84
2018-10-16T01:51:25.983Z,14.92
2018-10-16T01:54:01.337Z,15.01
2018-10-16T01:56:35.941Z,15.08
2018-10-16T01:59:10.717Z,15.07
2018-10-16T02:01:45.373Z,14.91
2018-10-16T02:04:19.947Z,14.74
2018-10-16T02:06:55.433Z,14.74
2018-10-16T02:09:29.951Z,14.91
2018-10-16T02:12:04.570Z,15.05
2018-10-16T02:14:39.296Z,15.16
2018-10-16T02:17:14.040Z,15.24
2018-10-16T02:19:48.993Z,15.28
2018-10-16T02:22:35.104Z,15.34
2018-10-16T02:25:11.624Z,15.46
2018-10-16T02:27:46.126Z,15.45
2018-10-16T02:30:34.897Z,15.43
2018-10-16T02:33:09.857Z,15.48
2018-10-16T02:35:44.472Z,15.51
2018-10-16T02:38:19.286Z,15.65
2018-10-16T02:40:54.114Z,15.63
2018-10-16T02:43:28.625Z,15.54
2018-10-16T02:46:03.668Z,15.47
2018-10-16T02:48:38.619Z,15.40
2018-10-16T02:51:13.226Z,15.43
2018-10-16T02:53:47.955Z,15.53
2018-10-16T02:56:22.736Z,15.60
2018-10-16T02:58:57.871Z,15.59
2018-10-16T03:01:32.506Z,15.55
2018-10-16T03:04:07.136Z,15.52
2018-10-16T03:06:41.999Z,15.56
2018-10-16T03:09:16.719Z,15.56
2018-10-16T03:11:51.660Z,15.46
2018-10-16T03:14:26.637Z,15.47
2018-10-16T03:17:01.573Z,15.42
2018-10-16T03:19:36.254Z,15.43
2018-10-16T03:22:11.381Z,15.42
2018-10-16T03:24:46.277Z,15.35
2018-10-16T03:27:21.318Z,15.33
2018-10-16T03:29:56.275Z,15.30
2018-10-16T03:32:30.813Z,15.37
2018-10-16T03:35:20.247Z,15.40
2018-10-16T03:37:54.932Z,15.46
2018-10-16T03:40:29.576Z,15.47
2018-10-16T03:43:04.100Z,15.48
2018-10-16T03:45:38.953Z,15.46
2018-10-16T03:48:13.798Z,15.40
2018-10-16T03:50:48.331Z,15.36
2018-10-16T03:53:23.008Z,15.32
2018-10-16T03:55:57.785Z,15.49
2018-10-16T03:58:32.457Z,15.61
2018-10-16T04:01:06.992Z,15.66
2018-10-16T04:03:42.006Z,15.72
2018-10-16T04:06:16.889Z,15.78
2018-10-16T04:08:52.276Z,15.77
2018-10-16T04:11:26.953Z,15.70
2018-10-16T04:14:01.964Z,15.66
2018-10-16T04:16:37.024Z,15.60
2018-10-16T04:19:11.745Z,15.53
2018-10-16T04:21:47.409Z,15.48
2018-10-16T04:24:22.053Z,15.49
2018-10-16T04:26:56.620Z,15.50
2018-10-16T04:29:31.255Z,15.53
2018-10-16T04:32:06.796Z,15.53
2018-10-16T04:34:41.901Z,15.57
2018-10-16T04:37:16.398Z,15.53
2018-10-16T04:39:50.925Z,15.46
2018-10-16T04:42:25.448Z,15.39
2018-10-16T04:44:59.986Z,15.41
2018-10-16T04:47:34.496Z,15.40
2018-10-16T04:50:10.149Z,15.39
2018-10-16T04:52:44.718Z,15.35
2018-10-16T04:55:19.503Z,15.27
2018-10-16T04:57:53.981Z,15.36
2018-10-16T05:00:29.095Z,15.33
2018-10-16T05:03:03.768Z,15.27
2018-10-16T05:05:38.384Z,15.24
2018-10-16T05:08:12.920Z,15.25
2018-10-16T05:10:47.624Z,15.22
2018-10-16T05:13:22.335Z,15.22
2018-10-16T05:15:56.812Z,15.22
2018-10-16T05:18:31.604Z,15.22
2018-10-16T05:21:06.246Z,15.17
2018-10-16T05:23:40.739Z,15.11
2018-10-16T05:26:15.517Z,15.15
2018-10-16T05:28:50.158Z,15.18
2018-10-16T05:31:25.077Z,15.16
2018-10-16T05:33:59.389Z,15.09
2018-10-16T05:36:33.998Z,15.12
2018-10-16T05:39:11.367Z,15.12
2018-10-16T05:41:46.104Z,15.14
2018-10-16T05:44:20.578Z,15.14
2018-10-16T05:46:55.241Z,15.20
2018-10-16T05:49:29.912Z,15.30
2018-10-16T05:52:04.433Z,15.44
2018-10-16T05:54:39.356Z,15.44
2018-10-16T05:57:13.860Z,15.38
2018-10-16T05:59:48.836Z,15.40
2018-10-16T06:02:23.928Z,15.40
2018-10-16T06:04:58.500Z,15.39
2018-10-16T06:07:33.092Z,15.36
2018-10-16T06:10:08.081Z,15.21
2018-10-16T06:12:42.688Z,15.11
2018-10-16T06:15:17.388Z,15.18
2018-10-16T06:17:51.994Z,15.17
2018-10-16T06:20:26.439Z,15.19
2018-10-16T06:23:01.116Z,15.24
2018-10-16T06:25:35.707Z,15.28
2018-10-16T06:28:17.067Z,15.34
2018-10-16T06:30:51.583Z,15.41
2018-10-16T06:33:29.496Z,15.47
2018-10-16T06:36:04.620Z,15.53
2018-10-16T06:38:39.209Z,15.60
2018-10-16T06:41:14.315Z,15.68
2018-10-16T06:43:48.986Z,15.70
2018-10-16T06:46:23.453Z,15.75
2018-10-16T06:48:58.122Z,15.62
2018-10-16T06:51:32.733Z,15.83
2018-10-16T06:54:07.712Z,16.00
2018-10-16T06:56:42.196Z,16.12
2018-10-16T06:59:16.731Z,16.19
2018-10-16T07:01:51.684Z,16.18
2018-10-16T07:04:26.172Z,16.13
2018-10-16T07:07:00.960Z,16.10
2018-10-16T07:09:35.425Z,16.24
2018-10-16T07:12:10.233Z,16.47
2018-10-16T07:14:44.800Z,16.69
2018-10-16T07:17:19.566Z,16.99
2018-10-16T07:19:54.302Z,17.22
2018-10-16T07:22:28.993Z,17.49
2018-10-16T07:25:03.550Z,17.58
2018-10-16T07:30:37.240Z,17.36
2018-10-16T07:33:12.289Z,17.41
2018-10-16T07:35:47.942Z,17.53
2018-10-16T07:38:23.045Z,17.60
2018-10-16T07:40:57.946Z,17.60
2018-10-16T07:43:32.506Z,17.52
2018-10-16T07:46:07.093Z,17.28
2018-10-16T07:48:42.298Z,17.19
2018-10-16T07:51:28.985Z,17.17
2018-10-16T07:54:03.525Z,17.28
2018-10-16T07:56:38.233Z,17.30
2018-10-16T07:59:13.409Z,17.35
2018-10-16T08:01:48.160Z,17.52
2018-10-16T08:04:22.689Z,17.97
2018-10-16T08:06:57.155Z,18.31
2018-10-16T08:09:31.942Z,18.45
2018-10-16T08:12:09.185Z,18.41
2018-10-16T08:14:43.668Z,18.39
2018-10-16T08:17:18.300Z,18.29
2018-10-16T08:19:52.819Z,18.41
2018-10-16T08:22:27.272Z,18.48
2018-10-16T08:25:01.843Z,18.72
2018-10-16T08:27:36.684Z,18.88
2018-10-16T08:30:11.682Z,19.16
2018-10-16T08:32:46.320Z,19.39
2018-10-16T08:35:21.252Z,19.61
2018-10-16T08:40:05.095Z,19.74
2018-10-16T08:42:50.954Z,20.45
2018-10-16T08:45:37.068Z,20.65
2018-10-16T08:48:23.066Z,20.98
2018-10-16T08:51:09.076Z,20.94
2018-10-16T08:53:43.513Z,21.00
2018-10-16T08:56:18.009Z,21.49
2018-10-16T08:58:52.441Z,21.65
2018-10-16T09:01:27.208Z,21.69
2018-10-16T09:04:06.517Z,21.45
2018-10-16T09:06:41.291Z,22.05
2018-10-16T09:09:17.041Z,21.89
2018-10-16T09:11:51.526Z,21.81
2018-10-16T09:14:26.212Z,21.61
2018-10-16T09:17:01.221Z,21.95
2018-10-16T09:19:35.674Z,22.73
2018-10-16T09:22:10.191Z,23.24
2018-10-16T09:24:44.936Z,23.67
2018-10-16T09:27:19.535Z,23.12
2018-10-16T09:29:54.051Z,23.08
2018-10-16T09:32:28.465Z,22.40
2018-10-16T09:35:02.984Z,22.22
2018-10-16T09:37:37.756Z,22.09
2018-10-16T09:40:13.346Z,21.81
2018-10-16T09:42:47.836Z,21.95
2018-10-16T09:45:22.540Z,21.86
2018-10-16T09:47:57.102Z,21.83
2018-10-16T09:50:32.007Z,21.82
2018-10-16T09:53:07.797Z,21.86
2018-10-16T09:55:44.802Z,21.73
2018-10-16T09:58:19.525Z,21.68
2018-10-16T10:00:59.361Z,21.72
2018-10-16T10:03:33.864Z,21.76
2018-10-16T10:06:11.789Z,21.76
2018-10-16T10:08:46.572Z,21.82
2018-10-16T10:14:30.649Z,21.85
2018-10-16T10:17:06.176Z,21.95
2018-10-16T10:19:48.801Z,21.95
2018-10-16T10:22:23.424Z,22.20
2018-10-16T10:24:58.041Z,22.28
2018-10-16T10:27:32.833Z,22.16
2018-10-16T10:30:10.513Z,22.31
2018-10-16T10:32:47.101Z,22.34
2018-10-16T10:35:22.169Z,22.37
2018-10-16T10:38:08.360Z,22.37
2018-10-16T10:40:43.013Z,22.51
2018-10-16T10:43:17.692Z,22.58
2018-10-16T10:45:52.286Z,22.52
2018-10-16T10:48:26.946Z,22.47
2018-10-16T10:51:02.143Z,22.75
2018-10-16T10:53:36.415Z,22.76
2018-10-16T10:56:10.941Z,22.61
2018-10-16T10:58:47.630Z,22.71
2018-10-16T11:01:22.333Z,22.83
2018-10-16T11:03:57.021Z,22.91
2018-10-16T11:06:31.917Z,23.04
2018-10-16T11:09:08.820Z,23.09
2018-10-16T11:11:48.841Z,23.22
2018-10-16T11:14:24.240Z,23.35
2018-10-16T11:16:58.783Z,23.04
2018-10-16T11:19:33.552Z,23.23
2018-10-16T11:22:27.277Z,23.30
2018-10-16T11:25:01.891Z,23.29
2018-10-16T11:27:37.112Z,23.34
2018-10-16T11:30:13.619Z,23.48
2018-10-16T11:32:48.014Z,23.54
2018-10-16T11:35:22.588Z,23.49
2018-10-16T11:37:57.208Z,23.51
2018-10-16T11:40:31.826Z,23.60
2018-10-16T11:43:06.400Z,23.60
2018-10-16T11:45:40.936Z,23.59
2018-10-16T11:48:23.081Z,23.72
2018-10-16T11:50:59.811Z,23.61
2018-10-16T11:53:39.938Z,23.58
2018-10-16T11:56:15.329Z,23.48
2018-10-16T11:59:02.420Z,23.52
2018-10-16T12:01:36.918Z,23.79
2018-10-16T12:04:11.769Z,23.87
2018-10-16T12:06:46.866Z,23.90
2018-10-16T12:09:36.817Z,23.72
2018-10-16T12:12:11.601Z,23.69
2018-10-16T12:15:00.493Z,23.76
2018-10-16T12:17:39.948Z,23.68
2018-10-16T12:20:20.428Z,23.71
2018-10-16T12:22:54.979Z,23.56
2018-10-16T12:25:29.831Z,23.42
2018-10-16T12:28:04.373Z,23.60
2018-10-16T12:30:39.013Z,23.64
2018-10-16T12:33:13.491Z,23.60
2018-10-16T12:35:48.341Z,23.71
2018-10-16T12:38:23.836Z,23.77
2018-10-16T12:40:58.549Z,23.91
2018-10-16T12:43:34.399Z,23.84
2018-10-16T12:46:08.947Z,23.94
2018-10-16T12:48:44.419Z,23.58
2018-10-16T12:51:22.090Z,23.70
2018-10-16T12:54:05.568Z,23.75
2018-10-16T12:59:48.618Z,23.72
2018-10-16T13:05:29.916Z,23.89
2018-10-16T13:08:04.355Z,23.89
2018-10-16T13:10:38.601Z,23.87
2018-10-16T13:13:13.024Z,23.84
2018-10-16T13:15:47.463Z,23.85
2018-10-16T13:18:21.893Z,23.91
2018-10-16T13:20:56.154Z,23.94
2018-10-16T13:23:30.449Z,23.94
2018-10-16T13:26:05.095Z,23.90
2018-10-16T13:28:39.283Z,23.79
2018-10-16T13:31:13.593Z,23.77
2018-10-16T13:33:47.798Z,23.72
2018-10-16T13:36:22.271Z,23.85
2018-10-16T13:38:56.742Z,23.86
2018-10-16T13:41:31.286Z,23.87
2018-10-16T13:44:05.781Z,23.79
2018-10-16T13:46:39.927Z,23.68
2018-10-16T13:49:14.527Z,23.68
2018-10-16T13:51:49.055Z,23.72
2018-10-16T13:54:23.908Z,23.78
2018-10-16T13:56:58.683Z,23.75
2018-10-16T13:59:33.240Z,23.83
2018-10-16T14:02:07.626Z,23.76
2018-10-16T14:04:42.346Z,23.73
2018-10-16T14:07:16.996Z,23.77
2018-10-16T14:09:51.353Z,23.68
2018-10-16T14:12:25.804Z,23.85
2018-10-16T14:15:00.129Z,23.65
2018-10-16T14:17:34.517Z,23.67
2018-10-16T14:20:09.858Z,23.57
2018-10-16T14:22:44.431Z,23.39
2018-10-16T14:25:24.947Z,23.40
2018-10-16T14:28:00.155Z,23.38
2018-10-16T14:30:34.763Z,23.33
2018-10-16T14:33:11.211Z,23.31
2018-10-16T14:35:45.608Z,23.10
2018-10-16T14:38:20.009Z,22.80
2018-10-16T14:40:55.083Z,22.94
2018-10-16T14:43:30.451Z,22.88
2018-10-16T14:49:06.624Z,22.30
2018-10-16T14:51:51.152Z,22.24
2018-10-16T14:54:26.544Z,22.01
2018-10-16T14:57:01.174Z,21.80
2018-10-16T14:59:39.198Z,21.60
2018-10-16T15:02:14.086Z,21.41
2018-10-16T15:05:01.252Z,21.30
2018-10-16T15:07:36.204Z,21.08
2018-10-16T15:10:11.939Z,20.91
2018-10-16T15:12:47.045Z,20.80
2018-10-16T15:15:38.323Z,20.69
2018-10-16T15:18:12.981Z,20.59
2018-10-16T15:20:47.904Z,20.50
2018-10-16T15:23:22.876Z,20.37
2018-10-16T15:25:57.351Z,20.34
2018-10-16T15:28:32.297Z,20.33
2018-10-16T15:31:07.197Z,20.38
2018-10-16T15:33:41.990Z,20.45
2018-10-16T15:36:16.863Z,20.58
2018-10-16T15:38:51.996Z,20.76
2018-10-16T15:41:26.364Z,20.95
2018-10-16T15:44:01.011Z,21.00
2018-10-16T15:46:35.492Z,21.03
2018-10-16T15:49:10.224Z,21.02
2018-10-16T15:51:44.965Z,21.00
2018-10-16T15:54:20.064Z,20.96
2018-10-16T15:56:55.067Z,20.94
2018-10-16T15:59:29.516Z,20.91
2018-10-16T16:02:04.176Z,20.82
2018-10-16T16:04:39.268Z,20.73
2018-10-16T16:07:14.308Z,20.67
2018-10-16T16:09:48.709Z,20.64
2018-10-16T16:12:23.293Z,20.54
2018-10-16T16:14:57.954Z,20.50
2018-10-16T16:17:32.520Z,20.33
2018-10-16T16:20:08.961Z,20.16
2018-10-16T16:22:43.937Z,20.05
2018-10-16T16:25:18.778Z,19.93
2018-10-16T16:27:53.536Z,19.83
2018-10-16T16:30:28.155Z,19.74
2018-10-16T16:33:02.790Z,19.73
2018-10-16T16:35:37.781Z,19.66
2018-10-16T16:38:12.499Z,19.58
2018-10-16T16:40:47.548Z,19.53
2018-10-16T16:43:21.986Z,19.49
2018-10-16T16:45:56.914Z,19.45
2018-10-16T16:48:31.575Z,19.39
2018-10-16T16:51:06.193Z,19.39
2018-10-16T16:53:40.897Z,19.39
2018-10-16T16:56:15.799Z,19.36
2018-10-16T16:58:50.718Z,19.33
2018-10-16T17:01:25.273Z,19.27
2018-10-16T17:03:59.844Z,19.21
2018-10-16T17:06:34.348Z,19.19
2018-10-16T17:09:10.152Z,19.21
2018-10-16T17:11:44.771Z,19.17
2018-10-16T17:14:19.252Z,19.13
2018-10-16T17:16:53.904Z,19.06
2018-10-16T17:19:28.853Z,19.06
2018-10-16T17:22:03.469Z,19.04
2018-10-16T17:24:38.298Z,19.05
2018-10-16T17:27:12.825Z,19.03
2018-10-16T17:29:47.458Z,19.01
2018-10-16T17:32:22.277Z,18.95
2018-10-16T17:34:56.821Z,18.95
2018-10-16T17:37:32.265Z,18.92
2018-10-16T17:40:08.468Z,18.90
2018-10-16T17:42:43.707Z,18.85
2018-10-16T17:45:18.433Z,18.87
2018-10-16T17:50:53.355Z,18.99
2018-10-16T17:53:29.264Z,18.95
2018-10-16T17:56:03.880Z,18.89
2018-10-16T17:58:43.927Z,18.81
2018-10-16T18:01:18.444Z,18.73
2018-10-16T18:03:52.892Z,18.68
2018-10-16T18:06:27.489Z,18.66
2018-10-16T18:09:02.226Z,18.66
2018-10-16T18:11:36.909Z,18.62
2018-10-16T18:14:11.681Z,18.59
2018-10-16T18:16:46.572Z,18.52
2018-10-16T18:19:21.150Z,18.50
2018-10-16T18:21:55.774Z,18.49
2018-10-16T18:24:30.472Z,18.48
2018-10-16T18:27:05.385Z,18.69
2018-10-16T18:29:40.037Z,18.77
2018-10-16T18:32:14.717Z,18.93
2018-10-16T18:34:49.632Z,19.02
2018-10-16T18:37:24.650Z,19.09
2018-10-16T18:39:59.385Z,19.12
2018-10-16T18:42:34.285Z,19.09
2018-10-16T18:45:10.285Z,19.06
2018-10-16T18:47:44.609Z,19.09
2018-10-16T18:50:19.321Z,19.13
2018-10-16T18:52:53.988Z,19.12
2018-10-16T18:55:28.917Z,19.06
2018-10-16T18:58:03.902Z,19.06
2018-10-16T19:00:39.484Z,19.07
2018-10-16T19:03:14.392Z,19.00
2018-10-16T19:05:49.406Z,18.92
2018-10-16T19:08:24.403Z,18.80
2018-10-16T19:10:59.080Z,18.77
2018-10-16T19:13:33.577Z,18.82
2018-10-16T19:16:08.194Z,18.74
2018-10-16T19:18:42.975Z,18.61
2018-10-16T19:21:17.465Z,18.51
2018-10-16T19:23:52.101Z,18.52
2018-10-16T19:26:27.203Z,18.56
2018-10-16T19:29:02.934Z,18.54
2018-10-16T19:31:37.605Z,18.52
2018-10-16T19:34:12.088Z,18.51
2018-10-16T19:36:46.849Z,18.56
2018-10-16T19:39:25.445Z,18.55
2018-10-16T19:42:00.167Z,18.58
2018-10-16T19:44:35.006Z,18.64
2018-10-16T19:47:09.972Z,18.73
2018-10-16T19:49:44.721Z,18.77
2018-10-16T19:52:19.400Z,18.83
2018-10-16T19:54:54.156Z,18.86
2018-10-16T19:57:29.465Z,18.87
2018-10-16T20:00:04.375Z,18.82
2018-10-16T20:02:39.268Z,18.75
2018-10-16T20:05:13.687Z,18.68
2018-10-16T20:08:01.737Z,18.60
2018-10-16T20:10:40.201Z,18.58
2018-10-16T20:13:15.362Z,18.47
2018-10-16T20:15:50.180Z,18.47
2018-10-16T20:18:24.734Z,18.52
2018-10-16T20:20:59.807Z,18.54
2018-10-16T20:23:41.118Z,18.56
2018-10-16T20:26:16.261Z,18.57
2018-10-16T20:28:51.004Z,18.55
2018-10-16T20:31:25.461Z,18.47
2018-10-16T20:34:00.289Z,18.41
2018-10-16T20:36:38.520Z,18.40
2018-10-16T20:39:14.243Z,18.45
2018-10-16T20:41:48.899Z,18.49
2018-10-16T20:44:23.732Z,18.45
2018-10-16T20:46:58.508Z,18.42
2018-10-16T20:52:33.061Z,18.17
2018-10-16T20:55:07.887Z,18.11
2018-10-16T20:57:42.661Z,18.11
2018-10-16T21:00:17.244Z,18.11
2018-10-16T21:02:51.841Z,18.12
2018-10-16T21:05:26.560Z,18.12
2018-10-16T21:08:01.004Z,18.16
2018-10-16T21:10:35.834Z,18.13
2018-10-16T21:13:10.569Z,18.06
2018-10-16T21:15:45.141Z,18.04
2018-10-16T21:18:19.644Z,18.06
2018-10-16T21:20:54.276Z,18.08
2018-10-16T21:23:29.052Z,18.05
2018-10-16T21:26:03.877Z,17.96
2018-10-16T21:28:38.452Z,17.94
2018-10-16T21:31:13.327Z,17.97
2018-10-16T21:33:48.264Z,17.92
2018-10-16T21:36:23.068Z,17.98
2018-10-16T21:38:57.732Z,18.04
2018-10-16T21:41:32.344Z,18.06
2018-10-16T21:44:07.807Z,18.00
2018-10-16T21:46:48.568Z,18.03
2018-10-16T21:49:24.048Z,17.97
2018-10-16T21:51:58.996Z,17.99
2018-10-16T21:54:55.579Z,17.91
2018-10-16T21:57:30.229Z,17.85
2018-10-16T22:00:05.781Z,17.73
2018-10-16T22:02:49.768Z,17.63
2018-10-16T22:05:24.864Z,17.66
2018-10-16T22:07:59.579Z,17.68
2018-10-16T22:10:34.144Z,17.70
2018-10-16T22:13:10.726Z,17.68
2018-10-16T22:15:50.653Z,17.64
2018-10-16T22:18:25.621Z,17.63
2018-10-16T22:21:00.301Z,17.58
2018-10-16T22:23:35.302Z,17.59
2018-10-16T22:26:09.937Z,17.49
2018-10-16T22:28:44.676Z,17.44
2018-10-16T22:31:19.921Z,17.39
2018-10-16T22:33:55.047Z,17.35
2018-10-16T22:36:29.600Z,17.28
2018-10-16T22:39:05.845Z,17.25
2018-10-16T22:41:40.390Z,17.20
2018-10-16T22:44:15.573Z,17.14
2018-10-16T22:46:50.345Z,17.08
2018-10-16T22:49:24.932Z,16.99
2018-10-16T22:52:00.300Z,16.95
2018-10-16T22:54:35.053Z,16.92
2018-10-16T22:57:09.605Z,16.83
2018-10-16T22:59:44.396Z,16.82
2018-10-16T23:02:19.028Z,16.78
2018-10-16T23:04:53.831Z,16.75
2018-10-16T23:07:29.994Z,16.76
2018-10-16T23:10:07.218Z,16.78
2018-10-16T23:12:41.912Z,16.73
2018-10-16T23:15:17.173Z,16.66
2018-10-16T23:17:51.997Z,16.55
2018-10-16T23:20:33.551Z,16.49
2018-10-16T23:23:08.450Z,16.41
2018-10-16T23:25:43.076Z,16.39
2018-10-16T23:28:30.080Z,16.37
2018-10-16T23:31:05.119Z,16.37
2018-10-16T23:33:39.620Z,16.35
2018-10-16T23:36:14.429Z,16.33
2018-10-16T23:38:49.114Z,16.32
2018-10-16T23:41:23.721Z,16.32
2018-10-16T23:43:58.199Z,16.27
2018-10-16T23:46:32.956Z,16.18
2018-10-16T23:49:08.347Z,16.14
2018-10-16T23:51:42.953Z,16.09
2018-10-16T23:54:18.136Z,16.07
2018-10-16T23:56:53.391Z,16.03
2018-10-16T23:59:28.620Z,16.05
